Terminal Aerodrome Forecast
Issued by NWS Milwaukee/Sullivan, WI

Home | Current Version | Previous Version | Text Only | Print | Product List | Glossary On
Versions: 1 2 3 4 5 6 7 8 9 10 11 12 13 14 15 16 17 18 19 20 21 22 23 24 25 26 27 28 29 30 31 32 33 34 35 36 37 38 39 40 41 42 43 44 45 46 47 48 49 50
000
FTUS43 KMKX 282329
TAFMSN
TAF
KMSN 282329Z 2900/2924 17009KT P6SM FEW070 SCT250
     FM290700 15005KT P6SM SCT060 BKN150
     FM290800 16005KT P6SM VCTS SCT025 BKN050CB
     FM291200 17006KT P6SM -SHRA OVC012
     FM291400 18007KT P6SM SCT030 OVC060
     FM291700 20011KT P6SM VCTS BKN035CB
     FM292100 21010KT P6SM TSRA OVC040CB=

USA.gov is the U.S. government's official web portal to all federal, state and local government web resources and services.